LNI727 WAWW-WAAA
Flight info
| Callsign | LNI727 |
|---|---|
| Flight time | 0h 36m |
| Altitude | 36000 |
| Route | LEKEX W41 MKS W32 SUSIL W32N KOLTA |
| Aircraft | B738/M-SDE2E3FGHIRWXY/LB1 |
Departure
| Time | 2026-05-08 08:55 |
|---|---|
| Airport | Haluoleo Airport (WAWW) |
Arrival
| Time | 2026-05-08 09:32 |
|---|---|
| Airport | Sultan Hasanuddin International Airport (WAAA) |
| Time | Latitude | Longitude | Altitude | Speed | Heading |
|---|---|---|---|---|---|
| 2026-05-08 08:55 | -3.98938 | 122.34326 | 3697 ft | 288 kts | 264° |
| 2026-05-08 08:55 | -3.99429 | 122.32416 | 4671 ft | 281 kts | 240° |
| 2026-05-08 08:55 | -4.00413 | 122.30729 | 5481 ft | 284 kts | 235° |
| 2026-05-08 08:55 | -4.01489 | 122.29054 | 6262 ft | 288 kts | 234° |
| 2026-05-08 08:56 | -4.02597 | 122.27358 | 7039 ft | 291 kts | 234° |
| 2026-05-08 08:56 | -4.03711 | 122.25649 | 7786 ft | 294 kts | 235° |
| 2026-05-08 08:56 | -4.04834 | 122.23917 | 8501 ft | 299 kts | 235° |
| 2026-05-08 08:56 | -4.05960 | 122.22170 | 9241 ft | 303 kts | 235° |
| 2026-05-08 08:57 | -4.07105 | 122.20384 | 9986 ft | 306 kts | 235° |
| 2026-05-08 08:57 | -4.08270 | 122.18564 | 10491 ft | 318 kts | 235° |
| 2026-05-08 08:57 | -4.09513 | 122.16622 | 10646 ft | 342 kts | 235° |
| 2026-05-08 08:57 | -4.10834 | 122.14552 | 10867 ft | 360 kts | 236° |
| 2026-05-08 08:58 | -4.12198 | 122.12409 | 11365 ft | 367 kts | 236° |
| 2026-05-08 08:58 | -4.13576 | 122.10243 | 12011 ft | 370 kts | 236° |
| 2026-05-08 08:58 | -4.14945 | 122.08087 | 12647 ft | 373 kts | 236° |
| 2026-05-08 08:58 | -4.16349 | 122.05880 | 13262 ft | 376 kts | 236° |
| 2026-05-08 08:59 | -4.17762 | 122.03658 | 13835 ft | 379 kts | 236° |
| 2026-05-08 08:59 | -4.19187 | 122.01417 | 14400 ft | 381 kts | 236° |
| 2026-05-08 08:59 | -4.20620 | 121.99163 | 14954 ft | 384 kts | 236° |
| 2026-05-08 08:59 | -4.22043 | 121.96926 | 15481 ft | 386 kts | 236° |
| 2026-05-08 09:00 | -4.23492 | 121.94647 | 16013 ft | 389 kts | 236° |
| 2026-05-08 09:00 | -4.24957 | 121.92343 | 16531 ft | 392 kts | 236° |
| 2026-05-08 09:00 | -4.26449 | 121.90033 | 17054 ft | 395 kts | 234° |
| 2026-05-08 09:00 | -4.28062 | 121.87801 | 17548 ft | 397 kts | 232° |
| 2026-05-08 09:01 | -4.29755 | 121.85602 | 18055 ft | 400 kts | 231° |
| 2026-05-08 09:01 | -4.31464 | 121.83418 | 18459 ft | 403 kts | 231° |
| 2026-05-08 09:01 | -4.33201 | 121.81192 | 18901 ft | 405 kts | 231° |
| 2026-05-08 09:01 | -4.34945 | 121.78940 | 19342 ft | 407 kts | 232° |
| 2026-05-08 09:02 | -4.36659 | 121.76710 | 19761 ft | 409 kts | 232° |
| 2026-05-08 09:02 | -4.38399 | 121.74434 | 20184 ft | 411 kts | 232° |
| 2026-05-08 09:02 | -4.40143 | 121.72147 | 20613 ft | 413 kts | 232° |
| 2026-05-08 09:02 | -4.41874 | 121.69874 | 21005 ft | 416 kts | 232° |
| 2026-05-08 09:03 | -4.43635 | 121.67560 | 21394 ft | 418 kts | 232° |
| 2026-05-08 09:03 | -4.45407 | 121.65231 | 21782 ft | 420 kts | 232° |
| 2026-05-08 09:03 | -4.47186 | 121.62893 | 22168 ft | 422 kts | 232° |
| 2026-05-08 09:03 | -4.48955 | 121.60568 | 22534 ft | 424 kts | 233° |
| 2026-05-08 09:04 | -4.50754 | 121.58205 | 22913 ft | 426 kts | 233° |
| 2026-05-08 09:04 | -4.52559 | 121.55833 | 23280 ft | 428 kts | 233° |
| 2026-05-08 09:04 | -4.54372 | 121.53450 | 23595 ft | 430 kts | 233° |
| 2026-05-08 09:04 | -4.56198 | 121.51051 | 23877 ft | 433 kts | 233° |
| 2026-05-08 09:05 | -4.58027 | 121.48647 | 24149 ft | 435 kts | 233° |
| 2026-05-08 09:05 | -4.59853 | 121.46251 | 24398 ft | 438 kts | 233° |
| 2026-05-08 09:05 | -4.61710 | 121.43816 | 24666 ft | 440 kts | 232° |
| 2026-05-08 09:05 | -4.63571 | 121.41374 | 24977 ft | 440 kts | 232° |
| 2026-05-08 09:06 | -4.65426 | 121.38940 | 25422 ft | 438 kts | 233° |
| 2026-05-08 09:06 | -4.67252 | 121.36544 | 25773 ft | 437 kts | 233° |
| 2026-05-08 09:06 | -4.69106 | 121.34109 | 25827 ft | 441 kts | 233° |
| 2026-05-08 09:06 | -4.70988 | 121.31638 | 25843 ft | 445 kts | 233° |
| 2026-05-08 09:07 | -4.72882 | 121.29150 | 25855 ft | 448 kts | 233° |
| 2026-05-08 09:07 | -4.74747 | 121.26702 | 25844 ft | 446 kts | 233° |
| 2026-05-08 09:07 | -4.76629 | 121.24229 | 25841 ft | 445 kts | 233° |
| 2026-05-08 09:07 | -4.78503 | 121.21767 | 25844 ft | 444 kts | 233° |
| 2026-05-08 09:08 | -4.80377 | 121.19304 | 25848 ft | 443 kts | 233° |
| 2026-05-08 09:08 | -4.82247 | 121.16847 | 25843 ft | 443 kts | 233° |
| 2026-05-08 09:08 | -4.84117 | 121.14389 | 25848 ft | 443 kts | 233° |
| 2026-05-08 09:08 | -4.85988 | 121.11931 | 25849 ft | 443 kts | 233° |
| 2026-05-08 09:09 | -4.87861 | 121.09468 | 25848 ft | 443 kts | 233° |
| 2026-05-08 09:09 | -4.89729 | 121.07013 | 25848 ft | 443 kts | 233° |
| 2026-05-08 09:09 | -4.91576 | 121.04584 | 25849 ft | 444 kts | 233° |
| 2026-05-08 09:09 | -4.93456 | 121.02113 | 25848 ft | 444 kts | 233° |
| 2026-05-08 09:10 | -4.95329 | 120.99650 | 25847 ft | 444 kts | 233° |
| 2026-05-08 09:10 | -4.97208 | 120.97178 | 25848 ft | 444 kts | 233° |
| 2026-05-08 09:10 | -4.99064 | 120.94737 | 25843 ft | 444 kts | 233° |
| 2026-05-08 09:10 | -5.00945 | 120.92263 | 25847 ft | 444 kts | 233° |
| 2026-05-08 09:11 | -5.02819 | 120.89797 | 25845 ft | 444 kts | 233° |
| 2026-05-08 09:11 | -5.04694 | 120.87330 | 25846 ft | 444 kts | 233° |
| 2026-05-08 09:11 | -5.06564 | 120.84869 | 25848 ft | 444 kts | 233° |
| 2026-05-08 09:11 | -5.08431 | 120.82411 | 25832 ft | 434 kts | 233° |
| 2026-05-08 09:12 | -5.10208 | 120.80072 | 25825 ft | 419 kts | 233° |
| 2026-05-08 09:12 | -5.11965 | 120.77760 | 25837 ft | 414 kts | 233° |
| 2026-05-08 09:12 | -5.13714 | 120.75457 | 25844 ft | 414 kts | 233° |
| 2026-05-08 09:12 | -5.15325 | 120.73050 | 25620 ft | 417 kts | 245° |
| 2026-05-08 09:13 | -5.16227 | 120.70344 | 25323 ft | 410 kts | 255° |
| 2026-05-08 09:13 | -5.16886 | 120.67579 | 24878 ft | 404 kts | 258° |
| 2026-05-08 09:13 | -5.17448 | 120.64825 | 24273 ft | 401 kts | 259° |
| 2026-05-08 09:13 | -5.17974 | 120.62074 | 23643 ft | 401 kts | 259° |
| 2026-05-08 09:14 | -5.18495 | 120.59328 | 22991 ft | 399 kts | 259° |
| 2026-05-08 09:14 | -5.19010 | 120.56640 | 22405 ft | 395 kts | 259° |
| 2026-05-08 09:14 | -5.19534 | 120.53949 | 21839 ft | 390 kts | 258° |
| 2026-05-08 09:14 | -5.20057 | 120.51293 | 21270 ft | 385 kts | 258° |
| 2026-05-08 09:15 | -5.20581 | 120.48661 | 20686 ft | 382 kts | 258° |
| 2026-05-08 09:15 | -5.21101 | 120.46057 | 20120 ft | 379 kts | 258° |
| 2026-05-08 09:15 | -5.21619 | 120.43468 | 19578 ft | 376 kts | 258° |
| 2026-05-08 09:15 | -5.22126 | 120.40939 | 19085 ft | 372 kts | 258° |
| 2026-05-08 09:16 | -5.22633 | 120.38413 | 18633 ft | 366 kts | 258° |
| 2026-05-08 09:16 | -5.23132 | 120.35919 | 18222 ft | 360 kts | 258° |
| 2026-05-08 09:16 | -5.23622 | 120.33475 | 17783 ft | 354 kts | 258° |
| 2026-05-08 09:16 | -5.24104 | 120.31069 | 17389 ft | 350 kts | 258° |
| 2026-05-08 09:17 | -5.24583 | 120.28679 | 17004 ft | 349 kts | 258° |
| 2026-05-08 09:17 | -5.25063 | 120.26285 | 16612 ft | 348 kts | 258° |
| 2026-05-08 09:17 | -5.25535 | 120.23928 | 16235 ft | 348 kts | 258° |
| 2026-05-08 09:17 | -5.26010 | 120.21552 | 15856 ft | 347 kts | 258° |
| 2026-05-08 09:18 | -5.26486 | 120.19177 | 15474 ft | 347 kts | 258° |
| 2026-05-08 09:18 | -5.26961 | 120.16804 | 15082 ft | 347 kts | 258° |
| 2026-05-08 09:18 | -5.27436 | 120.14429 | 14690 ft | 347 kts | 258° |
| 2026-05-08 09:18 | -5.27910 | 120.12057 | 14298 ft | 347 kts | 258° |
| 2026-05-08 09:19 | -5.28386 | 120.09679 | 13911 ft | 348 kts | 258° |
| 2026-05-08 09:19 | -5.28857 | 120.07324 | 13509 ft | 348 kts | 258° |
| 2026-05-08 09:19 | -5.29333 | 120.04941 | 13098 ft | 348 kts | 258° |
| 2026-05-08 09:19 | -5.29809 | 120.02560 | 12706 ft | 347 kts | 258° |
| 2026-05-08 09:20 | -5.30283 | 120.00186 | 12309 ft | 347 kts | 258° |
| 2026-05-08 09:20 | -5.30757 | 119.97806 | 11961 ft | 345 kts | 258° |
| 2026-05-08 09:20 | -5.31226 | 119.95459 | 11669 ft | 342 kts | 258° |
| 2026-05-08 09:20 | -5.31689 | 119.93142 | 11342 ft | 344 kts | 258° |
| 2026-05-08 09:21 | -5.32161 | 119.90776 | 10911 ft | 345 kts | 258° |
| 2026-05-08 09:21 | -5.32632 | 119.88419 | 10633 ft | 341 kts | 258° |
| 2026-05-08 09:22 | -5.35254 | 119.75269 | 9384 ft | 310 kts | 258° |
| 2026-05-08 09:23 | -5.35679 | 119.73138 | 9014 ft | 311 kts | 258° |
| 2026-05-08 09:23 | -5.36097 | 119.71040 | 8710 ft | 310 kts | 258° |
| 2026-05-08 09:23 | -5.36520 | 119.68919 | 8383 ft | 308 kts | 258° |
| 2026-05-08 09:23 | -5.36940 | 119.66809 | 8084 ft | 307 kts | 258° |
| 2026-05-08 09:24 | -5.37356 | 119.64712 | 7775 ft | 305 kts | 258° |
| 2026-05-08 09:24 | -5.37769 | 119.62641 | 7459 ft | 305 kts | 258° |
| 2026-05-08 09:24 | -5.38132 | 119.60553 | 7152 ft | 305 kts | 268° |
| 2026-05-08 09:24 | -5.37808 | 119.58466 | 6824 ft | 304 kts | 293° |
| 2026-05-08 09:25 | -5.36853 | 119.56577 | 6487 ft | 303 kts | 300° |
| 2026-05-08 09:25 | -5.35816 | 119.54725 | 6123 ft | 304 kts | 301° |
| 2026-05-08 09:25 | -5.34779 | 119.52870 | 5757 ft | 305 kts | 300° |
| 2026-05-08 09:25 | -5.33746 | 119.50999 | 5401 ft | 305 kts | 300° |
| 2026-05-08 09:26 | -5.32738 | 119.49155 | 5029 ft | 298 kts | 300° |
| 2026-05-08 09:26 | -5.31767 | 119.47374 | 4687 ft | 291 kts | 300° |
| 2026-05-08 09:26 | -5.30641 | 119.45734 | 4352 ft | 279 kts | 319° |
| 2026-05-08 09:26 | -5.29035 | 119.44788 | 4042 ft | 261 kts | 346° |
| 2026-05-08 09:27 | -5.27298 | 119.44600 | 3734 ft | 245 kts | 6° |
| 2026-05-08 09:27 | -5.25674 | 119.44956 | 3445 ft | 234 kts | 25° |
| 2026-05-08 09:27 | -5.24242 | 119.45684 | 3206 ft | 228 kts | 31° |
| 2026-05-08 09:27 | -5.22879 | 119.46477 | 2987 ft | 223 kts | 32° |
| 2026-05-08 09:28 | -5.21568 | 119.47240 | 2713 ft | 217 kts | 31° |
| 2026-05-08 09:28 | -5.20286 | 119.47985 | 2438 ft | 207 kts | 31° |
| 2026-05-08 09:28 | -5.19066 | 119.48693 | 2168 ft | 198 kts | 31° |
| 2026-05-08 09:28 | -5.17923 | 119.49356 | 1934 ft | 181 kts | 30° |
| 2026-05-08 09:29 | -5.16876 | 119.49964 | 1735 ft | 165 kts | 30° |
| 2026-05-08 09:29 | -5.15918 | 119.50520 | 1500 ft | 153 kts | 30° |
| 2026-05-08 09:29 | -5.15009 | 119.51048 | 1314 ft | 151 kts | 30° |
| 2026-05-08 09:29 | -5.14084 | 119.51585 | 1136 ft | 155 kts | 29° |
| 2026-05-08 09:30 | -5.13154 | 119.52125 | 941 ft | 157 kts | 29° |
| 2026-05-08 09:30 | -5.12212 | 119.52672 | 760 ft | 154 kts | 29° |
| 2026-05-08 09:30 | -5.11539 | 119.53061 | 604 ft | 159 kts | 29° |
| 2026-05-08 09:31 | -5.10642 | 119.53585 | 421 ft | 154 kts | 30° |
| 2026-05-08 09:31 | -5.09715 | 119.54132 | 211 ft | 154 kts | 28° |
| 2026-05-08 09:31 | -5.08795 | 119.54657 | 53 ft | 148 kts | 29° |
| 2026-05-08 09:31 | -5.08006 | 119.55111 | 39 ft | 106 kts | 30° |
| 2026-05-08 09:32 | -5.07582 | 119.55357 | 41 ft | 33 kts | 30° |
| 2026-05-08 09:32 | -5.07364 | 119.55426 | 37 ft | 27 kts | 4° |
| 2026-05-08 09:32 | -5.07245 | 119.55428 | 39 ft | 14 kts | 1° |
| 2026-05-08 09:32 | -5.07202 | 119.55397 | 39 ft | 8 kts | 277° |
| 2026-05-08 09:33 | -5.07228 | 119.55353 | 39 ft | 8 kts | 210° |
| 2026-05-08 09:33 | -5.07274 | 119.55327 | 40 ft | 7 kts | 210° |
| 2026-05-08 09:33 | -5.07319 | 119.55302 | 40 ft | 7 kts | 210° |
| 2026-05-08 09:33 | -5.07361 | 119.55277 | 40 ft | 7 kts | 210° |
| 2026-05-08 09:34 | -5.07403 | 119.55253 | 40 ft | 7 kts | 210° |
| 2026-05-08 09:34 | -5.07444 | 119.55229 | 40 ft | 7 kts | 210° |
| 2026-05-08 09:34 | -5.07496 | 119.55200 | 40 ft | 10 kts | 210° |
| 2026-05-08 09:34 | -5.07566 | 119.55159 | 40 ft | 13 kts | 210° |
| 2026-05-08 09:35 | -5.07648 | 119.55111 | 40 ft | 14 kts | 210° |
| 2026-05-08 09:35 | -5.07707 | 119.55077 | 40 ft | 15 kts | 210° |
| 2026-05-08 09:35 | -5.07802 | 119.55022 | 40 ft | 16 kts | 210° |
| 2026-05-08 09:35 | -5.07902 | 119.54965 | 40 ft | 17 kts | 208° |
| 2026-05-08 09:36 | -5.08020 | 119.54896 | 40 ft | 10 kts | 207° |
| 2026-05-08 09:36 | -5.08057 | 119.54839 | 40 ft | 10 kts | 267° |
| 2026-05-08 09:36 | -5.08041 | 119.54798 | 40 ft | 10 kts | 301° |
| 2026-05-08 09:36 | -5.08020 | 119.54757 | 40 ft | 4 kts | 282° |
| 2026-05-08 09:37 | -5.08025 | 119.54729 | 40 ft | 5 kts | 249° |
| 2026-05-08 09:37 | -5.08053 | 119.54700 | 40 ft | 6 kts | 210° |
| 2026-05-08 09:37 | -5.08092 | 119.54677 | 40 ft | 6 kts | 210° |
| 2026-05-08 09:37 | -5.08112 | 119.54666 | 40 ft | 0 kts | 210° |
| 2026-05-08 09:38 | -5.08113 | 119.54666 | 40 ft | 0 kts | 206° |
| 2026-05-08 09:38 | -5.08122 | 119.54667 | 40 ft | 2 kts | 163° |
| 2026-05-08 09:38 | -5.08138 | 119.54683 | 38 ft | 4 kts | 122° |
| 2026-05-08 09:39 | -5.08154 | 119.54709 | 40 ft | 3 kts | 121° |
| 2026-05-08 09:39 | -5.08156 | 119.54711 | 40 ft | 0 kts | 121° |
| 2026-05-08 09:39 | -5.08158 | 119.54716 | 40 ft | 1 kts | 120° |
| 2026-05-08 09:40 | -5.08160 | 119.54719 | 40 ft | 0 kts | 120° |